sensor_id;sensor_type;location;lat;lon;timestamp;temperature;humidity
7030;DHT22;3556;53.500;10.176;2022-08-05T00:01:16;18.70;99.90
7030;DHT22;3556;53.500;10.176;2022-08-05T00:03:42;18.70;99.90
7030;DHT22;3556;53.500;10.176;2022-08-05T00:06:09;18.70;99.90
7030;DHT22;3556;53.500;10.176;2022-08-05T00:08:35;18.70;99.90
7030;DHT22;3556;53.500;10.176;2022-08-05T00:11:04;18.60;99.90
7030;DHT22;3556;53.500;10.176;2022-08-05T00:13:32;18.60;99.90
7030;DHT22;3556;53.500;10.176;2022-08-05T00:15:58;18.60;99.90
7030;DHT22;3556;53.500;10.176;2022-08-05T00:18:24;18.60;99.90
7030;DHT22;3556;53.500;10.176;2022-08-05T00:20:50;18.60;99.90
7030;DHT22;3556;53.500;10.176;2022-08-05T00:23:16;18.50;99.90
7030;DHT22;3556;53.500;10.176;2022-08-05T00:25:42;18.50;99.90
7030;DHT22;3556;53.500;10.176;2022-08-05T00:28:08;18.50;99.90
7030;DHT22;3556;53.500;10.176;2022-08-05T00:30:33;18.40;99.90
7030;DHT22;3556;53.500;10.176;2022-08-05T00:32:59;18.40;99.90
7030;DHT22;3556;53.500;10.176;2022-08-05T00:35:25;18.40;99.90
7030;DHT22;3556;53.500;10.176;2022-08-05T00:37:50;18.40;99.90
7030;DHT22;3556;53.500;10.176;2022-08-05T00:40:17;18.40;99.90
7030;DHT22;3556;53.500;10.176;2022-08-05T00:42:43;18.30;99.90
7030;DHT22;3556;53.500;10.176;2022-08-05T00:45:09;18.30;99.90
7030;DHT22;3556;53.500;10.176;2022-08-05T00:47:35;18.30;99.90
7030;DHT22;3556;53.500;10.176;2022-08-05T00:50:01;18.30;99.90
7030;DHT22;3556;53.500;10.176;2022-08-05T00:52:26;18.30;99.90
7030;DHT22;3556;53.500;10.176;2022-08-05T00:54:52;18.20;99.90
7030;DHT22;3556;53.500;10.176;2022-08-05T00:57:18;18.20;99.90
7030;DHT22;3556;53.500;10.176;2022-08-05T00:59:43;18.20;99.90
7030;DHT22;3556;53.500;10.176;2022-08-05T01:02:09;18.20;99.90
7030;DHT22;3556;53.500;10.176;2022-08-05T01:04:35;18.20;99.90
7030;DHT22;3556;53.500;10.176;2022-08-05T01:07:01;18.10;99.90
7030;DHT22;3556;53.500;10.176;2022-08-05T01:09:26;18.10;99.90
7030;DHT22;3556;53.500;10.176;2022-08-05T01:11:54;18.10;99.90
7030;DHT22;3556;53.500;10.176;2022-08-05T01:14:35;18.10;99.90
7030;DHT22;3556;53.500;10.176;2022-08-05T01:19:51;18.00;99.90
7030;DHT22;3556;53.500;10.176;2022-08-05T01:22:39;17.90;99.90
7030;DHT22;3556;53.500;10.176;2022-08-05T01:30:43;17.80;99.90
7030;DHT22;3556;53.500;10.176;2022-08-05T01:33:10;17.80;99.90
7030;DHT22;3556;53.500;10.176;2022-08-05T01:35:40;17.80;99.90
7030;DHT22;3556;53.500;10.176;2022-08-05T01:38:07;17.70;99.90
7030;DHT22;3556;53.500;10.176;2022-08-05T01:40:34;17.70;99.90
7030;DHT22;3556;53.500;10.176;2022-08-05T01:43:02;17.70;99.90
7030;DHT22;3556;53.500;10.176;2022-08-05T01:45:31;17.70;99.90
7030;DHT22;3556;53.500;10.176;2022-08-05T01:47:59;17.70;99.90
7030;DHT22;3556;53.500;10.176;2022-08-05T01:50:31;17.70;99.90
7030;DHT22;3556;53.500;10.176;2022-08-05T01:53:02;17.70;99.90
7030;DHT22;3556;53.500;10.176;2022-08-05T01:55:31;17.60;99.90
7030;DHT22;3556;53.500;10.176;2022-08-05T01:57:58;17.60;99.90
7030;DHT22;3556;53.500;10.176;2022-08-05T02:00:26;17.60;99.90
7030;DHT22;3556;53.500;10.176;2022-08-05T02:05:40;17.50;99.90
7030;DHT22;3556;53.500;10.176;2022-08-05T02:08:07;17.50;99.90
7030;DHT22;3556;53.500;10.176;2022-08-05T02:10:42;17.40;99.90
7030;DHT22;3556;53.500;10.176;2022-08-05T02:13:15;17.40;99.90
7030;DHT22;3556;53.500;10.176;2022-08-05T02:15:49;17.40;99.90
7030;DHT22;3556;53.500;10.176;2022-08-05T02:18:31;17.30;99.90
7030;DHT22;3556;53.500;10.176;2022-08-05T02:21:12;17.30;99.90
7030;DHT22;3556;53.500;10.176;2022-08-05T02:23:40;17.40;99.90
7030;DHT22;3556;53.500;10.176;2022-08-05T02:26:09;17.40;99.90
7030;DHT22;3556;53.500;10.176;2022-08-05T02:28:39;17.30;99.90
7030;DHT22;3556;53.500;10.176;2022-08-05T02:31:15;17.30;99.90
7030;DHT22;3556;53.500;10.176;2022-08-05T02:33:47;17.30;99.90
7030;DHT22;3556;53.500;10.176;2022-08-05T02:36:18;17.30;99.90
7030;DHT22;3556;53.500;10.176;2022-08-05T02:38:46;17.30;99.90
7030;DHT22;3556;53.500;10.176;2022-08-05T02:41:14;17.30;99.90
7030;DHT22;3556;53.500;10.176;2022-08-05T02:43:41;17.30;99.90
7030;DHT22;3556;53.500;10.176;2022-08-05T02:46:08;17.30;99.90
7030;DHT22;3556;53.500;10.176;2022-08-05T02:48:34;17.30;99.90
7030;DHT22;3556;53.500;10.176;2022-08-05T02:51:00;17.20;99.90
7030;DHT22;3556;53.500;10.176;2022-08-05T02:53:27;17.20;99.90
7030;DHT22;3556;53.500;10.176;2022-08-05T02:55:54;17.20;99.90
7030;DHT22;3556;53.500;10.176;2022-08-05T02:58:22;17.10;99.90
7030;DHT22;3556;53.500;10.176;2022-08-05T03:00:49;17.20;99.90
7030;DHT22;3556;53.500;10.176;2022-08-05T03:03:19;17.20;99.90
7030;DHT22;3556;53.500;10.176;2022-08-05T03:05:46;17.20;99.90
7030;DHT22;3556;53.500;10.176;2022-08-05T03:08:12;17.20;99.90
7030;DHT22;3556;53.500;10.176;2022-08-05T03:10:44;17.20;99.90
7030;DHT22;3556;53.500;10.176;2022-08-05T03:13:12;17.20;99.90
7030;DHT22;3556;53.500;10.176;2022-08-05T03:15:44;17.20;99.90
7030;DHT22;3556;53.500;10.176;2022-08-05T03:18:10;17.20;99.90
7030;DHT22;3556;53.500;10.176;2022-08-05T03:20:35;17.10;99.90
7030;DHT22;3556;53.500;10.176;2022-08-05T03:23:03;17.10;99.90
7030;DHT22;3556;53.500;10.176;2022-08-05T03:25:29;17.00;99.90
7030;DHT22;3556;53.500;10.176;2022-08-05T03:27:55;17.00;99.90
7030;DHT22;3556;53.500;10.176;2022-08-05T03:30:22;17.00;99.90
7030;DHT22;3556;53.500;10.176;2022-08-05T03:32:49;17.00;99.90
7030;DHT22;3556;53.500;10.176;2022-08-05T03:35:14;17.00;99.90
7030;DHT22;3556;53.500;10.176;2022-08-05T03:37:41;16.90;99.90
7030;DHT22;3556;53.500;10.176;2022-08-05T03:40:07;16.90;99.90
7030;DHT22;3556;53.500;10.176;2022-08-05T03:42:34;16.90;99.90
7030;DHT22;3556;53.500;10.176;2022-08-05T03:45:00;16.90;99.90
7030;DHT22;3556;53.500;10.176;2022-08-05T03:47:26;16.90;99.90
7030;DHT22;3556;53.500;10.176;2022-08-05T03:49:51;16.90;99.90
7030;DHT22;3556;53.500;10.176;2022-08-05T03:52:22;16.80;99.90
7030;DHT22;3556;53.500;10.176;2022-08-05T03:54:59;16.80;99.90
7030;DHT22;3556;53.500;10.176;2022-08-05T03:57:29;16.80;99.90
7030;DHT22;3556;53.500;10.176;2022-08-05T04:00:03;16.70;99.90
7030;DHT22;3556;53.500;10.176;2022-08-05T04:02:31;16.70;99.90
7030;DHT22;3556;53.500;10.176;2022-08-05T04:04:59;16.60;99.90
7030;DHT22;3556;53.500;10.176;2022-08-05T04:07:25;16.60;99.90
7030;DHT22;3556;53.500;10.176;2022-08-05T04:09:52;16.60;99.90
7030;DHT22;3556;53.500;10.176;2022-08-05T04:12:18;16.60;99.90
7030;DHT22;3556;53.500;10.176;2022-08-05T04:14:44;16.50;99.90
7030;DHT22;3556;53.500;10.176;2022-08-05T04:17:11;16.60;99.90
7030;DHT22;3556;53.500;10.176;2022-08-05T04:19:46;16.50;99.90
7030;DHT22;3556;53.500;10.176;2022-08-05T04:22:12;16.60;99.90
7030;DHT22;3556;53.500;10.176;2022-08-05T04:24:43;16.50;99.90
7030;DHT22;3556;53.500;10.176;2022-08-05T04:27:09;16.50;99.90
7030;DHT22;3556;53.500;10.176;2022-08-05T04:29:35;16.60;99.90
7030;DHT22;3556;53.500;10.176;2022-08-05T04:32:00;16.50;99.90
7030;DHT22;3556;53.500;10.176;2022-08-05T04:34:26;16.50;99.90
7030;DHT22;3556;53.500;10.176;2022-08-05T04:36:52;16.50;99.90
7030;DHT22;3556;53.500;10.176;2022-08-05T04:39:18;16.50;99.90
7030;DHT22;3556;53.500;10.176;2022-08-05T04:41:44;16.50;99.90
7030;DHT22;3556;53.500;10.176;2022-08-05T04:44:10;16.50;99.90
7030;DHT22;3556;53.500;10.176;2022-08-05T04:49:06;16.50;99.90
7030;DHT22;3556;53.500;10.176;2022-08-05T04:51:31;16.50;99.90
7030;DHT22;3556;53.500;10.176;2022-08-05T04:53:58;16.50;99.90
7030;DHT22;3556;53.500;10.176;2022-08-05T04:56:23;16.60;99.90
7030;DHT22;3556;53.500;10.176;2022-08-05T04:58:49;16.60;99.90
7030;DHT22;3556;53.500;10.176;2022-08-05T05:01:15;16.60;99.90
7030;DHT22;3556;53.500;10.176;2022-08-05T05:03:41;16.60;99.90
7030;DHT22;3556;53.500;10.176;2022-08-05T05:06:12;16.60;99.90
7030;DHT22;3556;53.500;10.176;2022-08-05T05:08:38;16.60;99.90
7030;DHT22;3556;53.500;10.176;2022-08-05T05:11:04;16.60;99.90
7030;DHT22;3556;53.500;10.176;2022-08-05T05:13:30;16.60;99.90
7030;DHT22;3556;53.500;10.176;2022-08-05T05:15:56;16.60;99.90
7030;DHT22;3556;53.500;10.176;2022-08-05T05:18:22;16.60;99.90
7030;DHT22;3556;53.500;10.176;2022-08-05T05:20:48;16.70;99.90
7030;DHT22;3556;53.500;10.176;2022-08-05T05:23:13;16.70;99.90
7030;DHT22;3556;53.500;10.176;2022-08-05T05:25:40;16.70;99.90
7030;DHT22;3556;53.500;10.176;2022-08-05T05:28:06;16.80;99.90
7030;DHT22;3556;53.500;10.176;2022-08-05T05:30:32;16.80;99.90
7030;DHT22;3556;53.500;10.176;2022-08-05T05:32:59;16.80;99.90
7030;DHT22;3556;53.500;10.176;2022-08-05T05:35:25;16.90;99.90
7030;DHT22;3556;53.500;10.176;2022-08-05T05:37:51;16.90;99.90
7030;DHT22;3556;53.500;10.176;2022-08-05T05:40:19;16.90;99.90
7030;DHT22;3556;53.500;10.176;2022-08-05T05:42:45;17.00;99.90
7030;DHT22;3556;53.500;10.176;2022-08-05T05:45:11;17.00;99.90
7030;DHT22;3556;53.500;10.176;2022-08-05T05:47:37;17.00;99.90
7030;DHT22;3556;53.500;10.176;2022-08-05T05:50:03;17.00;99.90
7030;DHT22;3556;53.500;10.176;2022-08-05T05:52:30;17.00;99.90
7030;DHT22;3556;53.500;10.176;2022-08-05T05:54:58;17.00;99.90
7030;DHT22;3556;53.500;10.176;2022-08-05T05:57:25;17.00;99.90
7030;DHT22;3556;53.500;10.176;2022-08-05T05:59:51;17.00;99.90
7030;DHT22;3556;53.500;10.176;2022-08-05T06:02:16;16.90;99.90
7030;DHT22;3556;53.500;10.176;2022-08-05T06:04:42;16.90;99.90
7030;DHT22;3556;53.500;10.176;2022-08-05T06:07:07;16.90;99.90
7030;DHT22;3556;53.500;10.176;2022-08-05T06:09:33;16.80;99.90
7030;DHT22;3556;53.500;10.176;2022-08-05T06:11:59;16.80;99.90
7030;DHT22;3556;53.500;10.176;2022-08-05T06:14:24;16.80;99.90
7030;DHT22;3556;53.500;10.176;2022-08-05T06:16:50;16.80;99.90
7030;DHT22;3556;53.500;10.176;2022-08-05T06:19:15;16.80;99.90
7030;DHT22;3556;53.500;10.176;2022-08-05T06:21:41;16.90;99.90
7030;DHT22;3556;53.500;10.176;2022-08-05T06:24:07;16.90;99.90
7030;DHT22;3556;53.500;10.176;2022-08-05T06:26:33;17.00;99.90
7030;DHT22;3556;53.500;10.176;2022-08-05T06:28:58;17.00;99.90
7030;DHT22;3556;53.500;10.176;2022-08-05T06:31:24;17.10;99.90
7030;DHT22;3556;53.500;10.176;2022-08-05T06:33:50;17.10;99.90
7030;DHT22;3556;53.500;10.176;2022-08-05T06:36:16;17.10;99.90
7030;DHT22;3556;53.500;10.176;2022-08-05T06:38:41;17.20;99.90
7030;DHT22;3556;53.500;10.176;2022-08-05T06:41:07;17.20;99.90
7030;DHT22;3556;53.500;10.176;2022-08-05T06:43:33;17.20;99.90
7030;DHT22;3556;53.500;10.176;2022-08-05T06:45:58;17.10;99.90
7030;DHT22;3556;53.500;10.176;2022-08-05T06:48:24;17.20;99.90
7030;DHT22;3556;53.500;10.176;2022-08-05T06:50:50;17.20;99.90
7030;DHT22;3556;53.500;10.176;2022-08-05T06:53:16;17.30;99.90
7030;DHT22;3556;53.500;10.176;2022-08-05T06:55:41;17.30;99.90
7030;DHT22;3556;53.500;10.176;2022-08-05T06:58:08;17.40;99.90
7030;DHT22;3556;53.500;10.176;2022-08-05T07:00:33;17.40;99.90
7030;DHT22;3556;53.500;10.176;2022-08-05T07:02:59;17.40;99.90
7030;DHT22;3556;53.500;10.176;2022-08-05T07:05:25;17.50;99.90
7030;DHT22;3556;53.500;10.176;2022-08-05T07:07:51;17.50;99.90
7030;DHT22;3556;53.500;10.176;2022-08-05T07:10:18;17.60;99.90
7030;DHT22;3556;53.500;10.176;2022-08-05T07:12:43;17.70;99.90
7030;DHT22;3556;53.500;10.176;2022-08-05T07:15:28;17.80;99.90
7030;DHT22;3556;53.500;10.176;2022-08-05T07:18:12;17.90;99.90
7030;DHT22;3556;53.500;10.176;2022-08-05T07:20:37;17.90;99.90
7030;DHT22;3556;53.500;10.176;2022-08-05T07:23:03;17.90;99.90
7030;DHT22;3556;53.500;10.176;2022-08-05T07:25:29;18.00;99.90
7030;DHT22;3556;53.500;10.176;2022-08-05T07:27:55;18.00;99.90
7030;DHT22;3556;53.500;10.176;2022-08-05T07:30:21;18.00;99.90
7030;DHT22;3556;53.500;10.176;2022-08-05T07:32:46;17.90;99.90
7030;DHT22;3556;53.500;10.176;2022-08-05T07:35:13;17.90;99.90
7030;DHT22;3556;53.500;10.176;2022-08-05T07:37:39;17.90;99.90
7030;DHT22;3556;53.500;10.176;2022-08-05T07:40:06;17.90;99.90
7030;DHT22;3556;53.500;10.176;2022-08-05T07:42:32;17.90;99.90
7030;DHT22;3556;53.500;10.176;2022-08-05T07:44:58;17.90;99.90
7030;DHT22;3556;53.500;10.176;2022-08-05T07:47:24;17.90;99.90
7030;DHT22;3556;53.500;10.176;2022-08-05T07:49:50;17.90;99.90
7030;DHT22;3556;53.500;10.176;2022-08-05T07:52:19;17.90;99.90
7030;DHT22;3556;53.500;10.176;2022-08-05T07:54:45;17.90;99.90
7030;DHT22;3556;53.500;10.176;2022-08-05T07:57:11;17.90;99.90
7030;DHT22;3556;53.500;10.176;2022-08-05T07:59:37;17.90;99.90
7030;DHT22;3556;53.500;10.176;2022-08-05T08:02:03;17.80;99.90
7030;DHT22;3556;53.500;10.176;2022-08-05T08:04:28;17.80;99.90
7030;DHT22;3556;53.500;10.176;2022-08-05T08:06:54;17.80;99.90
7030;DHT22;3556;53.500;10.176;2022-08-05T08:09:20;17.80;99.90
7030;DHT22;3556;53.500;10.176;2022-08-05T08:11:48;17.80;99.90
7030;DHT22;3556;53.500;10.176;2022-08-05T08:14:14;17.80;99.90
7030;DHT22;3556;53.500;10.176;2022-08-05T08:16:39;17.80;99.90
7030;DHT22;3556;53.500;10.176;2022-08-05T08:19:05;17.70;99.90
7030;DHT22;3556;53.500;10.176;2022-08-05T08:21:31;17.70;99.90
7030;DHT22;3556;53.500;10.176;2022-08-05T08:23:57;17.70;99.90
7030;DHT22;3556;53.500;10.176;2022-08-05T08:26:22;17.80;99.90
7030;DHT22;3556;53.500;10.176;2022-08-05T08:28:48;17.80;99.90
7030;DHT22;3556;53.500;10.176;2022-08-05T08:31:13;17.90;99.90
7030;DHT22;3556;53.500;10.176;2022-08-05T08:33:39;17.90;99.90
7030;DHT22;3556;53.500;10.176;2022-08-05T08:36:06;17.90;99.90
7030;DHT22;3556;53.500;10.176;2022-08-05T08:38:32;17.90;99.90
7030;DHT22;3556;53.500;10.176;2022-08-05T08:40:58;17.90;99.90
7030;DHT22;3556;53.500;10.176;2022-08-05T08:43:25;17.80;99.90
7030;DHT22;3556;53.500;10.176;2022-08-05T08:45:52;17.90;99.90
7030;DHT22;3556;53.500;10.176;2022-08-05T08:48:19;17.80;99.90
7030;DHT22;3556;53.500;10.176;2022-08-05T08:50:46;17.80;99.90
7030;DHT22;3556;53.500;10.176;2022-08-05T08:53:15;17.80;99.90
7030;DHT22;3556;53.500;10.176;2022-08-05T08:55:41;17.80;99.90
7030;DHT22;3556;53.500;10.176;2022-08-05T08:58:08;17.90;99.90
7030;DHT22;3556;53.500;10.176;2022-08-05T09:00:34;17.90;99.90
7030;DHT22;3556;53.500;10.176;2022-08-05T09:03:00;17.90;99.90
7030;DHT22;3556;53.500;10.176;2022-08-05T09:05:26;17.90;99.90
7030;DHT22;3556;53.500;10.176;2022-08-05T09:07:52;17.90;99.90
7030;DHT22;3556;53.500;10.176;2022-08-05T09:10:19;17.80;99.90
7030;DHT22;3556;53.500;10.176;2022-08-05T09:12:45;17.80;99.90
7030;DHT22;3556;53.500;10.176;2022-08-05T09:15:11;17.80;99.90
7030;DHT22;3556;53.500;10.176;2022-08-05T09:17:37;17.80;99.90
7030;DHT22;3556;53.500;10.176;2022-08-05T09:20:04;17.80;99.90
7030;DHT22;3556;53.500;10.176;2022-08-05T09:25:32;17.80;99.90
7030;DHT22;3556;53.500;10.176;2022-08-05T09:28:16;17.80;99.90
7030;DHT22;3556;53.500;10.176;2022-08-05T09:30:56;17.80;99.90
7030;DHT22;3556;53.500;10.176;2022-08-05T09:33:23;17.80;99.90
7030;DHT22;3556;53.500;10.176;2022-08-05T09:35:59;17.90;99.90
7030;DHT22;3556;53.500;10.176;2022-08-05T09:38:26;17.90;99.90
7030;DHT22;3556;53.500;10.176;2022-08-05T09:40:52;17.90;99.90
7030;DHT22;3556;53.500;10.176;2022-08-05T09:45:51;18.00;99.90
7030;DHT22;3556;53.500;10.176;2022-08-05T09:48:24;18.00;99.90
7030;DHT22;3556;53.500;10.176;2022-08-05T09:50:53;18.00;99.90
7030;DHT22;3556;53.500;10.176;2022-08-05T09:53:19;18.00;99.90
7030;DHT22;3556;53.500;10.176;2022-08-05T09:55:45;17.90;99.90
7030;DHT22;3556;53.500;10.176;2022-08-05T09:58:13;17.90;99.90
7030;DHT22;3556;53.500;10.176;2022-08-05T10:00:58;17.90;99.90
7030;DHT22;3556;53.500;10.176;2022-08-05T10:03:25;17.90;99.90
7030;DHT22;3556;53.500;10.176;2022-08-05T10:06:09;17.90;99.90
7030;DHT22;3556;53.500;10.176;2022-08-05T10:08:37;17.90;99.90
7030;DHT22;3556;53.500;10.176;2022-08-05T10:11:04;17.90;99.90
7030;DHT22;3556;53.500;10.176;2022-08-05T10:13:38;17.90;99.90
7030;DHT22;3556;53.500;10.176;2022-08-05T10:16:05;17.90;99.90
7030;DHT22;3556;53.500;10.176;2022-08-05T10:18:32;18.00;99.90
7030;DHT22;3556;53.500;10.176;2022-08-05T10:21:03;17.90;99.90
7030;DHT22;3556;53.500;10.176;2022-08-05T10:23:36;18.00;99.90
7030;DHT22;3556;53.500;10.176;2022-08-05T10:26:08;17.90;99.90
7030;DHT22;3556;53.500;10.176;2022-08-05T10:28:34;17.90;99.90
7030;DHT22;3556;53.500;10.176;2022-08-05T10:31:00;18.00;99.90
7030;DHT22;3556;53.500;10.176;2022-08-05T10:33:31;18.00;99.90
7030;DHT22;3556;53.500;10.176;2022-08-05T10:35:58;18.00;99.90
7030;DHT22;3556;53.500;10.176;2022-08-05T10:38:27;18.00;99.90
7030;DHT22;3556;53.500;10.176;2022-08-05T10:44:11;18.00;99.90
7030;DHT22;3556;53.500;10.176;2022-08-05T10:46:50;18.00;99.90
7030;DHT22;3556;53.500;10.176;2022-08-05T10:49:16;18.00;99.90
7030;DHT22;3556;53.500;10.176;2022-08-05T10:51:46;18.00;99.90
7030;DHT22;3556;53.500;10.176;2022-08-05T10:54:12;17.90;99.90
7030;DHT22;3556;53.500;10.176;2022-08-05T10:56:49;17.90;99.90
7030;DHT22;3556;53.500;10.176;2022-08-05T10:59:24;17.90;99.90
7030;DHT22;3556;53.500;10.176;2022-08-05T11:02:05;17.80;99.90
7030;DHT22;3556;53.500;10.176;2022-08-05T11:04:45;17.80;99.90
7030;DHT22;3556;53.500;10.176;2022-08-05T11:07:12;17.80;99.90
7030;DHT22;3556;53.500;10.176;2022-08-05T11:09:45;17.80;99.90
7030;DHT22;3556;53.500;10.176;2022-08-05T11:17:44;17.80;99.90
7030;DHT22;3556;53.500;10.176;2022-08-05T11:20:42;17.80;99.90
7030;DHT22;3556;53.500;10.176;2022-08-05T11:28:47;17.80;99.90
7030;DHT22;3556;53.500;10.176;2022-08-05T11:36:12;17.80;99.90
7030;DHT22;3556;53.500;10.176;2022-08-05T11:41:23;17.70;99.90
7030;DHT22;3556;53.500;10.176;2022-08-05T11:43:59;17.60;99.90
7030;DHT22;3556;53.500;10.176;2022-08-05T11:46:31;17.60;99.90
7030;DHT22;3556;53.500;10.176;2022-08-05T11:48:57;17.50;99.90
7030;DHT22;3556;53.500;10.176;2022-08-05T11:51:24;17.40;99.90
7030;DHT22;3556;53.500;10.176;2022-08-05T11:53:50;17.50;99.90
7030;DHT22;3556;53.500;10.176;2022-08-05T11:56:16;17.50;99.90
7030;DHT22;3556;53.500;10.176;2022-08-05T11:58:43;17.60;99.90
7030;DHT22;3556;53.500;10.176;2022-08-05T12:01:11;17.60;99.90
7030;DHT22;3556;53.500;10.176;2022-08-05T12:06:09;17.80;99.90
7030;DHT22;3556;53.500;10.176;2022-08-05T12:11:09;17.80;99.90
7030;DHT22;3556;53.500;10.176;2022-08-05T12:13:36;17.80;99.90
7030;DHT22;3556;53.500;10.176;2022-08-05T12:16:04;17.70;99.90
7030;DHT22;3556;53.500;10.176;2022-08-05T12:18:34;17.70;99.90
7030;DHT22;3556;53.500;10.176;2022-08-05T12:21:30;17.80;99.90
7030;DHT22;3556;53.500;10.176;2022-08-05T12:24:05;17.80;99.90
7030;DHT22;3556;53.500;10.176;2022-08-05T12:28:56;17.90;99.90
7030;DHT22;3556;53.500;10.176;2022-08-05T12:31:22;17.90;99.90
7030;DHT22;3556;53.500;10.176;2022-08-05T12:33:48;17.90;99.90
7030;DHT22;3556;53.500;10.176;2022-08-05T12:36:14;18.00;99.90
7030;DHT22;3556;53.500;10.176;2022-08-05T12:38:40;18.10;99.90
7030;DHT22;3556;53.500;10.176;2022-08-05T12:41:08;18.30;99.90
7030;DHT22;3556;53.500;10.176;2022-08-05T12:43:34;18.60;99.90
7030;DHT22;3556;53.500;10.176;2022-08-05T12:46:00;18.80;99.90
7030;DHT22;3556;53.500;10.176;2022-08-05T12:48:25;19.00;99.90
7030;DHT22;3556;53.500;10.176;2022-08-05T12:51:11;19.00;99.90
7030;DHT22;3556;53.500;10.176;2022-08-05T12:53:43;19.00;99.90
7030;DHT22;3556;53.500;10.176;2022-08-05T12:56:17;19.00;99.90
7030;DHT22;3556;53.500;10.176;2022-08-05T12:58:43;19.00;99.90
7030;DHT22;3556;53.500;10.176;2022-08-05T13:01:10;18.90;99.90
7030;DHT22;3556;53.500;10.176;2022-08-05T13:03:38;18.90;99.90
7030;DHT22;3556;53.500;10.176;2022-08-05T13:06:06;19.10;99.90
7030;DHT22;3556;53.500;10.176;2022-08-05T13:08:32;19.30;99.90
7030;DHT22;3556;53.500;10.176;2022-08-05T13:11:00;19.50;99.90
7030;DHT22;3556;53.500;10.176;2022-08-05T13:13:27;19.60;99.90
7030;DHT22;3556;53.500;10.176;2022-08-05T13:15:53;19.60;99.90
7030;DHT22;3556;53.500;10.176;2022-08-05T13:18:19;19.60;99.90
7030;DHT22;3556;53.500;10.176;2022-08-05T13:20:45;19.60;99.90
7030;DHT22;3556;53.500;10.176;2022-08-05T13:23:10;19.50;99.90
7030;DHT22;3556;53.500;10.176;2022-08-05T13:25:36;19.40;99.90
7030;DHT22;3556;53.500;10.176;2022-08-05T13:28:02;19.40;99.90
7030;DHT22;3556;53.500;10.176;2022-08-05T13:30:29;19.40;99.90
7030;DHT22;3556;53.500;10.176;2022-08-05T13:32:54;19.40;99.90
7030;DHT22;3556;53.500;10.176;2022-08-05T13:35:20;19.40;99.90
7030;DHT22;3556;53.500;10.176;2022-08-05T13:37:46;19.60;99.90
7030;DHT22;3556;53.500;10.176;2022-08-05T13:40:14;19.90;99.90
7030;DHT22;3556;53.500;10.176;2022-08-05T13:42:41;20.40;99.90
7030;DHT22;3556;53.500;10.176;2022-08-05T13:45:08;20.70;99.90
7030;DHT22;3556;53.500;10.176;2022-08-05T13:47:34;21.30;99.90
7030;DHT22;3556;53.500;10.176;2022-08-05T13:50:03;21.80;99.90
7030;DHT22;3556;53.500;10.176;2022-08-05T13:52:29;22.10;99.90
7030;DHT22;3556;53.500;10.176;2022-08-05T13:54:55;22.10;99.90
7030;DHT22;3556;53.500;10.176;2022-08-05T13:57:21;21.90;99.90
7030;DHT22;3556;53.500;10.176;2022-08-05T13:59:47;21.70;99.90
7030;DHT22;3556;53.500;10.176;2022-08-05T14:02:13;21.50;99.90
7030;DHT22;3556;53.500;10.176;2022-08-05T14:04:44;21.30;99.90
7030;DHT22;3556;53.500;10.176;2022-08-05T14:07:32;21.20;99.90
7030;DHT22;3556;53.500;10.176;2022-08-05T14:09:58;21.10;99.90
7030;DHT22;3556;53.500;10.176;2022-08-05T14:12:26;20.90;99.90
7030;DHT22;3556;53.500;10.176;2022-08-05T14:14:52;20.90;99.90
7030;DHT22;3556;53.500;10.176;2022-08-05T14:17:18;20.90;99.90
7030;DHT22;3556;53.500;10.176;2022-08-05T14:19:44;20.70;99.90
7030;DHT22;3556;53.500;10.176;2022-08-05T14:22:09;20.60;99.90
7030;DHT22;3556;53.500;10.176;2022-08-05T14:24:35;20.60;99.90
7030;DHT22;3556;53.500;10.176;2022-08-05T14:27:02;20.50;99.90
7030;DHT22;3556;53.500;10.176;2022-08-05T14:29:28;20.60;99.90
7030;DHT22;3556;53.500;10.176;2022-08-05T14:31:54;20.60;99.90
7030;DHT22;3556;53.500;10.176;2022-08-05T14:34:19;20.60;99.90
7030;DHT22;3556;53.500;10.176;2022-08-05T14:36:45;20.60;99.90
7030;DHT22;3556;53.500;10.176;2022-08-05T14:39:11;20.60;99.90
7030;DHT22;3556;53.500;10.176;2022-08-05T14:41:36;20.70;99.90
7030;DHT22;3556;53.500;10.176;2022-08-05T14:44:02;20.60;99.90
7030;DHT22;3556;53.500;10.176;2022-08-05T14:46:29;20.60;99.90
7030;DHT22;3556;53.500;10.176;2022-08-05T14:48:56;20.60;99.90
7030;DHT22;3556;53.500;10.176;2022-08-05T14:51:23;20.60;99.90
7030;DHT22;3556;53.500;10.176;2022-08-05T14:53:48;20.50;99.90
7030;DHT22;3556;53.500;10.176;2022-08-05T14:56:15;20.50;99.90
7030;DHT22;3556;53.500;10.176;2022-08-05T14:58:40;20.30;99.90
7030;DHT22;3556;53.500;10.176;2022-08-05T15:01:06;20.20;99.90
7030;DHT22;3556;53.500;10.176;2022-08-05T15:03:32;20.20;99.90
7030;DHT22;3556;53.500;10.176;2022-08-05T15:05:58;20.10;99.90
7030;DHT22;3556;53.500;10.176;2022-08-05T15:08:23;20.10;99.90
7030;DHT22;3556;53.500;10.176;2022-08-05T15:10:50;20.00;99.90
7030;DHT22;3556;53.500;10.176;2022-08-05T15:13:15;20.00;99.90
7030;DHT22;3556;53.500;10.176;2022-08-05T15:15:41;20.00;99.90
7030;DHT22;3556;53.500;10.176;2022-08-05T15:18:06;19.90;99.90
7030;DHT22;3556;53.500;10.176;2022-08-05T15:20:32;20.00;99.90
7030;DHT22;3556;53.500;10.176;2022-08-05T15:23:09;20.10;99.90
7030;DHT22;3556;53.500;10.176;2022-08-05T15:25:36;20.20;99.90
7030;DHT22;3556;53.500;10.176;2022-08-05T15:28:02;20.40;99.90
7030;DHT22;3556;53.500;10.176;2022-08-05T15:30:28;20.50;99.90
7030;DHT22;3556;53.500;10.176;2022-08-05T15:32:56;20.60;99.90
7030;DHT22;3556;53.500;10.176;2022-08-05T15:35:22;20.80;99.90
7030;DHT22;3556;53.500;10.176;2022-08-05T15:37:48;21.00;99.90
7030;DHT22;3556;53.500;10.176;2022-08-05T15:40:14;21.20;99.90
7030;DHT22;3556;53.500;10.176;2022-08-05T15:42:39;21.10;99.90
7030;DHT22;3556;53.500;10.176;2022-08-05T15:45:05;21.00;99.90
7030;DHT22;3556;53.500;10.176;2022-08-05T15:47:31;20.70;99.90
7030;DHT22;3556;53.500;10.176;2022-08-05T15:49:57;20.60;99.90
7030;DHT22;3556;53.500;10.176;2022-08-05T15:52:22;20.40;99.90
7030;DHT22;3556;53.500;10.176;2022-08-05T15:54:48;20.20;99.90
7030;DHT22;3556;53.500;10.176;2022-08-05T15:57:14;20.00;99.90
7030;DHT22;3556;53.500;10.176;2022-08-05T15:59:39;19.80;99.90
7030;DHT22;3556;53.500;10.176;2022-08-05T16:02:06;19.70;99.90
7030;DHT22;3556;53.500;10.176;2022-08-05T16:04:32;19.50;99.90
7030;DHT22;3556;53.500;10.176;2022-08-05T16:06:58;19.40;99.90
7030;DHT22;3556;53.500;10.176;2022-08-05T16:09:24;19.30;99.90
7030;DHT22;3556;53.500;10.176;2022-08-05T16:11:49;19.40;99.90
7030;DHT22;3556;53.500;10.176;2022-08-05T16:14:15;19.50;99.90
7030;DHT22;3556;53.500;10.176;2022-08-05T16:16:41;19.70;99.90
7030;DHT22;3556;53.500;10.176;2022-08-05T16:19:07;19.70;99.90
7030;DHT22;3556;53.500;10.176;2022-08-05T16:21:32;19.70;99.90
7030;DHT22;3556;53.500;10.176;2022-08-05T16:23:58;19.80;99.90
7030;DHT22;3556;53.500;10.176;2022-08-05T16:26:24;19.80;99.90
7030;DHT22;3556;53.500;10.176;2022-08-05T16:28:49;19.60;99.90
7030;DHT22;3556;53.500;10.176;2022-08-05T16:31:15;19.50;99.90
7030;DHT22;3556;53.500;10.176;2022-08-05T16:33:41;19.50;99.90
7030;DHT22;3556;53.500;10.176;2022-08-05T16:36:07;19.50;99.90